createdAt,value
2022-12-23T00:01:05.994Z,11.20
2022-12-23T00:06:15.873Z,10.50
2022-12-23T00:11:20.009Z,10.30
2022-12-23T00:21:24.351Z,10.40
2022-12-23T00:26:27.615Z,10.40
2022-12-23T00:31:29.534Z,10.40
2022-12-23T00:36:31.495Z,10.40
2022-12-23T00:41:52.117Z,12.10
2022-12-23T00:46:54.140Z,10.30
2022-12-23T00:51:56.119Z,10.30
2022-12-23T00:56:58.858Z,10.30
2022-12-23T01:02:19.412Z,10.40
2022-12-23T01:07:21.835Z,10.40
2022-12-23T01:12:23.720Z,10.30
2022-12-23T01:17:25.498Z,10.40
2022-12-23T01:22:27.308Z,10.40
2022-12-23T01:27:29.052Z,10.50
2022-12-23T01:32:30.839Z,10.60
2022-12-23T01:37:32.707Z,10.70
2022-12-23T01:42:43.398Z,10.70
2022-12-23T01:48:02.035Z,10.70
2022-12-23T01:53:20.688Z,10.80
2022-12-23T01:58:25.354Z,10.80
2022-12-23T02:03:42.828Z,10.80
2022-12-23T02:09:03.478Z,10.80
2022-12-23T02:14:46.438Z,10.80
2022-12-23T02:19:54.248Z,10.90
2022-12-23T02:25:25.632Z,10.90
2022-12-23T02:31:11.716Z,11.00
2022-12-23T02:36:38.768Z,11.00
2022-12-23T02:41:54.216Z,11.00
2022-12-23T02:47:01.743Z,11.10
2022-12-23T02:52:13.307Z,11.10
2022-12-23T02:57:19.607Z,11.10
2022-12-23T03:02:21.578Z,11.10
2022-12-23T03:07:38.872Z,11.20
2022-12-23T03:12:57.146Z,11.30
2022-12-23T03:18:23.433Z,11.30
2022-12-23T03:23:55.256Z,11.30
2022-12-23T03:29:08.354Z,11.30
2022-12-23T03:34:14.350Z,11.40
2022-12-23T03:39:26.422Z,11.50
2022-12-23T03:44:37.312Z,11.40
2022-12-23T03:49:48.324Z,11.50
2022-12-23T03:55:04.544Z,11.60
2022-12-23T04:00:07.150Z,11.60
2022-12-23T04:05:32.558Z,11.60
2022-12-23T04:10:34.934Z,11.50
2022-12-23T04:15:41.409Z,11.60
2022-12-23T04:20:43.277Z,11.50
2022-12-23T04:25:45.014Z,11.60
2022-12-23T04:30:46.827Z,11.60
2022-12-23T04:35:48.556Z,11.70
2022-12-23T04:40:50.309Z,11.60
2022-12-23T04:45:52.281Z,11.60
2022-12-23T04:50:53.990Z,11.70
2022-12-23T04:55:56.844Z,11.60
2022-12-23T05:01:10.051Z,11.70
2022-12-23T05:06:11.809Z,11.80
2022-12-23T05:11:13.570Z,11.70
2022-12-23T05:16:15.448Z,11.70
2022-12-23T05:21:17.557Z,11.60
2022-12-23T05:26:19.710Z,11.80
2022-12-23T05:31:21.675Z,11.70
2022-12-23T05:36:23.575Z,11.70
2022-12-23T05:41:25.363Z,11.70
2022-12-23T05:46:27.506Z,11.70
2022-12-23T05:51:29.417Z,12.10
2022-12-23T05:56:31.240Z,11.80
2022-12-23T06:06:35.216Z,11.80
2022-12-23T06:11:36.928Z,11.80
2022-12-23T06:16:38.715Z,11.70
2022-12-23T06:26:42.832Z,11.80
2022-12-23T06:36:46.888Z,11.90
2022-12-23T06:51:53.211Z,11.70
2022-12-23T07:01:57.192Z,11.70
2022-12-23T07:06:59.163Z,11.70
2022-12-23T07:17:05.458Z,11.70
2022-12-23T07:22:08.219Z,11.80
2022-12-23T07:27:09.919Z,11.90
2022-12-23T07:32:11.738Z,11.80
2022-12-23T07:37:13.499Z,11.80
2022-12-23T07:47:36.932Z,11.80
2022-12-23T07:52:38.690Z,11.80
2022-12-23T07:57:40.800Z,11.80
2022-12-23T08:02:42.935Z,11.90
2022-12-23T08:07:45.296Z,11.90
2022-12-23T08:12:47.131Z,12.40
2022-12-23T08:17:48.909Z,11.90
2022-12-23T08:22:50.785Z,11.70
2022-12-23T08:27:52.631Z,14.30
2022-12-23T08:32:54.407Z,11.90
2022-12-23T08:37:56.282Z,11.80
2022-12-23T08:42:58.100Z,11.80
2022-12-23T08:47:59.877Z,12.00
2022-12-23T08:53:01.629Z,12.10
2022-12-23T08:58:03.406Z,12.10
2022-12-23T09:03:06.047Z,12.20
2022-12-23T09:08:09.213Z,12.20
2022-12-23T09:13:15.012Z,12.40
2022-12-23T09:18:20.027Z,12.50
2022-12-23T09:23:22.364Z,12.80
2022-12-23T09:28:25.210Z,12.70
2022-12-23T09:33:26.926Z,12.60
2022-12-23T09:38:28.810Z,12.70
2022-12-23T09:43:51.519Z,12.70
2022-12-23T09:49:05.254Z,12.60
2022-12-23T09:54:19.429Z,12.50
2022-12-23T09:59:58.282Z,12.50
2022-12-23T10:05:26.451Z,12.50
2022-12-23T10:11:04.583Z,12.60
2022-12-23T10:16:18.728Z,12.60
2022-12-23T10:21:43.719Z,12.50
2022-12-23T10:27:06.521Z,12.60
2022-12-23T10:32:22.548Z,12.50
2022-12-23T10:37:38.185Z,12.50
2022-12-23T10:42:53.811Z,12.50
2022-12-23T10:48:00.462Z,12.60
2022-12-23T10:53:08.652Z,12.60
2022-12-23T10:58:16.289Z,12.70
2022-12-23T11:03:43.771Z,12.80
2022-12-23T11:08:46.164Z,12.80
2022-12-23T11:13:48.286Z,12.80
2022-12-23T11:19:03.344Z,12.80
2022-12-23T11:24:19.682Z,12.90
2022-12-23T11:29:24.783Z,12.90
2022-12-23T11:34:29.272Z,12.90
2022-12-23T11:39:34.173Z,12.90
2022-12-23T11:44:43.928Z,12.90
2022-12-23T11:49:51.567Z,12.80
2022-12-23T11:55:01.780Z,12.70
2022-12-23T12:00:06.814Z,12.80
2022-12-23T12:05:38.124Z,12.80
2022-12-23T12:10:41.731Z,12.70
2022-12-23T12:16:25.103Z,12.70
2022-12-23T12:21:31.776Z,12.60
2022-12-23T12:26:37.062Z,12.60
2022-12-23T12:31:50.640Z,12.70
2022-12-23T12:37:18.359Z,12.60
2022-12-23T12:42:42.768Z,12.70
2022-12-23T12:48:04.441Z,12.70
2022-12-23T12:53:18.656Z,12.80
2022-12-23T12:58:22.555Z,12.70
2022-12-23T13:03:39.234Z,12.80
2022-12-23T13:08:50.019Z,12.70
2022-12-23T13:14:40.110Z,12.70
2022-12-23T13:19:46.012Z,12.70
2022-12-23T13:25:13.210Z,12.80
2022-12-23T13:30:18.904Z,12.80
2022-12-23T13:35:33.666Z,12.80
2022-12-23T13:41:02.691Z,12.70
2022-12-23T13:46:15.101Z,12.70
2022-12-23T13:51:56.089Z,12.60
2022-12-23T13:57:23.841Z,12.70
2022-12-23T14:02:38.087Z,12.80
2022-12-23T14:07:44.465Z,12.70
2022-12-23T14:12:47.727Z,12.70
2022-12-23T14:18:34.701Z,12.60
2022-12-23T14:23:50.072Z,12.70
2022-12-23T14:29:33.658Z,12.70
2022-12-23T14:34:36.220Z,12.70
2022-12-23T14:44:40.079Z,12.60
2022-12-23T14:49:43.524Z,12.70
2022-12-23T14:55:06.085Z,12.70
2022-12-23T15:00:09.830Z,12.70
2022-12-23T15:05:12.683Z,11.10
2022-12-23T15:10:21.295Z,12.70
2022-12-23T15:15:28.639Z,12.70
2022-12-23T15:20:30.413Z,12.70
2022-12-23T15:25:36.036Z,12.80
2022-12-23T15:34:16.871Z,12.70
2022-12-23T15:39:24.986Z,13.60
2022-12-23T15:44:35.647Z,12.60
2022-12-23T15:49:37.378Z,12.60
2022-12-23T15:54:45.612Z,11.40
2022-12-23T15:59:48.245Z,12.80
2022-12-23T16:05:00.408Z,12.80
2022-12-23T16:10:16.516Z,12.90
2022-12-23T16:15:29.849Z,12.80
2022-12-23T16:20:46.756Z,12.90
2022-12-23T16:25:51.376Z,12.90
2022-12-23T16:30:58.035Z,12.90
2022-12-23T16:36:20.315Z,13.00
2022-12-23T16:41:22.112Z,13.00
2022-12-23T16:46:24.209Z,13.00
2022-12-23T16:51:27.736Z,12.90
2022-12-23T16:56:35.644Z,12.90
2022-12-23T17:01:40.613Z,12.90
2022-12-23T17:06:42.825Z,13.70
2022-12-23T17:11:50.513Z,12.90
2022-12-23T17:16:52.447Z,12.90
2022-12-23T17:22:01.042Z,13.30
2022-12-23T17:27:09.996Z,13.00
2022-12-23T17:32:13.011Z,12.90
2022-12-23T17:37:17.365Z,12.90
2022-12-23T17:42:25.474Z,13.00
2022-12-23T17:47:27.878Z,12.90
2022-12-23T17:52:29.662Z,12.90
2022-12-23T17:57:31.336Z,12.90
2022-12-23T18:02:35.368Z,13.60
2022-12-23T18:07:39.617Z,12.70
2022-12-23T18:12:44.544Z,12.70
2022-12-23T18:17:46.314Z,12.80
2022-12-23T18:22:50.414Z,12.80
2022-12-23T18:27:53.692Z,12.80
2022-12-23T18:32:55.521Z,12.80
2022-12-23T18:37:58.492Z,12.70
2022-12-23T18:43:02.388Z,12.60
2022-12-23T18:48:06.161Z,12.50
2022-12-23T18:53:23.088Z,12.50
2022-12-23T18:58:25.885Z,12.50
2022-12-23T19:03:30.497Z,12.50
2022-12-23T19:08:33.784Z,12.50
2022-12-23T19:13:35.453Z,12.50
2022-12-23T19:18:37.331Z,14.00
2022-12-23T19:23:42.456Z,12.50
2022-12-23T19:28:44.240Z,12.50
2022-12-23T19:33:47.004Z,12.50
2022-12-23T19:38:49.074Z,12.50
2022-12-23T19:43:50.844Z,12.50
2022-12-23T19:48:52.961Z,12.50
2022-12-23T19:53:54.693Z,13.20
2022-12-23T19:58:56.615Z,12.40
2022-12-23T20:04:07.424Z,12.40
2022-12-23T20:09:11.919Z,12.40
2022-12-23T20:14:16.204Z,13.30
2022-12-23T20:19:18.556Z,13.90
2022-12-23T20:24:20.436Z,10.90
2022-12-23T20:29:22.150Z,12.40
2022-12-23T20:34:23.866Z,12.30
2022-12-23T20:39:25.623Z,12.10
2022-12-23T20:44:36.530Z,12.20
2022-12-23T20:49:39.055Z,12.30
2022-12-23T20:54:40.779Z,12.20
2022-12-23T20:59:42.463Z,12.10
2022-12-23T21:04:44.199Z,13.60
2022-12-23T21:09:45.887Z,12.10
2022-12-23T21:14:47.563Z,12.00
2022-12-23T21:19:49.293Z,12.00
2022-12-23T21:24:50.939Z,12.80
2022-12-23T21:29:52.781Z,12.00
2022-12-23T21:34:54.462Z,13.40
2022-12-23T21:39:56.290Z,12.10
2022-12-23T21:44:57.964Z,12.00
2022-12-23T21:49:59.680Z,12.70
2022-12-23T21:55:01.393Z,12.20
2022-12-23T22:00:03.325Z,12.00
2022-12-23T22:05:05.627Z,12.00
2022-12-23T22:10:07.974Z,12.00
2022-12-23T22:15:11.804Z,12.00
2022-12-23T22:20:13.774Z,11.90
2022-12-23T22:25:15.946Z,11.90
2022-12-23T22:30:17.671Z,11.90
2022-12-23T22:35:19.642Z,11.30
2022-12-23T22:40:21.444Z,11.20
2022-12-23T22:45:23.180Z,11.30
2022-12-23T22:50:24.970Z,12.20
2022-12-23T22:55:26.904Z,11.40
2022-12-23T23:00:28.728Z,11.10
2022-12-23T23:05:30.466Z,11.20
2022-12-23T23:10:32.217Z,11.20
2022-12-23T23:15:33.924Z,13.00
2022-12-23T23:20:35.671Z,11.30
2022-12-23T23:25:37.587Z,11.30
2022-12-23T23:30:40.007Z,11.20
2022-12-23T23:35:41.803Z,11.30
2022-12-23T23:40:46.477Z,11.30
2022-12-23T23:45:49.068Z,11.40
2022-12-23T23:50:50.936Z,11.40
2022-12-23T23:55:52.640Z,11.40
